createdAt,value
2023-01-03T00:00:53.954Z,1.30
2023-01-03T00:04:56.241Z,1.08
2023-01-03T00:08:59.286Z,2.30
2023-01-03T00:13:01.480Z,0.63
2023-01-03T00:17:04.808Z,1.33
2023-01-03T00:21:07.158Z,2.20
2023-01-03T00:25:09.497Z,1.05
2023-01-03T00:29:12.011Z,1.25
2023-01-03T00:33:14.180Z,0.68
2023-01-03T00:37:16.847Z,1.13
2023-01-03T00:41:19.589Z,2.13
2023-01-03T00:45:25.322Z,3.83
2023-01-03T00:49:27.875Z,2.25
2023-01-03T00:53:29.987Z,0.90
2023-01-03T00:57:32.102Z,1.20
2023-01-03T01:01:45.846Z,0.70
2023-01-03T01:05:49.165Z,1.10
2023-01-03T01:09:51.378Z,1.23
2023-01-03T01:13:54.009Z,0.98
2023-01-03T01:17:56.148Z,0.73
2023-01-03T01:21:58.591Z,0.65
2023-01-03T01:26:01.530Z,0.93
2023-01-03T01:30:03.937Z,1.73
2023-01-03T01:34:06.350Z,1.00
2023-01-03T01:38:08.529Z,1.23
2023-01-03T01:42:18.241Z,2.10
2023-01-03T01:46:24.358Z,0.63
2023-01-03T01:50:32.407Z,0.98
2023-01-03T01:54:34.687Z,0.50
2023-01-03T01:58:38.357Z,1.13
2023-01-03T02:02:40.811Z,1.87
2023-01-03T02:06:43.199Z,1.07
2023-01-03T02:10:57.498Z,1.13
2023-01-03T02:15:02.450Z,1.30
2023-01-03T02:19:16.959Z,0.40
2023-01-03T02:23:34.011Z,1.90
2023-01-03T02:27:48.293Z,1.00
2023-01-03T02:31:59.303Z,0.90
2023-01-03T02:36:06.120Z,0.93
2023-01-03T02:40:08.272Z,1.03
2023-01-03T02:44:26.672Z,1.50
2023-01-03T02:48:34.909Z,0.40
2023-01-03T02:52:38.796Z,0.60
2023-01-03T02:56:44.352Z,0.60
2023-01-03T03:00:47.495Z,0.50
2023-01-03T03:04:51.873Z,1.57
2023-01-03T03:08:54.100Z,1.50
2023-01-03T03:13:01.566Z,0.57
2023-01-03T03:17:06.915Z,0.57
2023-01-03T03:21:10.274Z,1.03
2023-01-03T03:25:35.671Z,0.70
2023-01-03T03:29:37.953Z,2.23
2023-01-03T03:33:44.939Z,3.40
2023-01-03T03:37:48.899Z,2.60
2023-01-03T03:41:53.432Z,2.63
2023-01-03T03:46:00.655Z,0.83
2023-01-03T03:50:05.363Z,0.70
2023-01-03T03:54:10.916Z,0.77
2023-01-03T03:58:13.052Z,3.23
2023-01-03T04:02:16.323Z,1.83
2023-01-03T04:06:23.837Z,1.27
2023-01-03T04:10:26.070Z,1.87
2023-01-03T04:14:28.811Z,1.30
2023-01-03T04:18:31.089Z,1.93
2023-01-03T04:22:33.264Z,3.30
2023-01-03T04:26:35.527Z,4.00
2023-01-03T04:30:37.721Z,1.00
2023-01-03T04:34:39.896Z,0.77
2023-01-03T04:38:42.010Z,3.00
2023-01-03T04:42:44.167Z,0.97
2023-01-03T04:46:52.320Z,1.50
2023-01-03T04:50:55.614Z,1.70
2023-01-03T04:54:57.768Z,2.93
2023-01-03T04:58:59.983Z,0.53
2023-01-03T05:03:02.146Z,1.40
2023-01-03T05:07:04.368Z,0.83
2023-01-03T05:11:07.250Z,0.87
2023-01-03T05:15:09.693Z,2.60
2023-01-03T05:19:11.830Z,1.97
2023-01-03T05:23:17.629Z,0.50
2023-01-03T05:27:19.813Z,0.73
2023-01-03T05:31:22.164Z,1.17
2023-01-03T05:35:24.399Z,2.47
2023-01-03T05:39:26.591Z,1.30
2023-01-03T05:43:28.762Z,1.10
2023-01-03T05:47:30.927Z,1.43
2023-01-03T05:51:33.120Z,0.93
2023-01-03T05:55:36.944Z,2.03
2023-01-03T05:59:39.143Z,1.50
2023-01-03T06:03:43.513Z,0.60
2023-01-03T06:07:45.712Z,2.30
2023-01-03T06:11:47.884Z,1.90
2023-01-03T06:15:50.277Z,1.13
2023-01-03T06:19:52.435Z,2.07
2023-01-03T06:23:54.588Z,0.70
2023-01-03T06:27:56.740Z,2.50
2023-01-03T06:32:03.591Z,0.77
2023-01-03T06:36:11.099Z,2.50
2023-01-03T06:40:13.286Z,1.50
2023-01-03T06:44:15.492Z,1.30
2023-01-03T06:48:17.671Z,2.67
2023-01-03T06:52:19.807Z,0.97
2023-01-03T06:56:21.958Z,3.90
2023-01-03T07:00:24.111Z,1.87
2023-01-03T07:04:26.551Z,1.00
2023-01-03T07:08:28.824Z,3.70
2023-01-03T07:12:31.129Z,2.60
2023-01-03T07:16:38.015Z,2.13
2023-01-03T07:20:43.361Z,3.77
2023-01-03T07:24:45.529Z,1.67
2023-01-03T07:28:47.817Z,1.73
2023-01-03T07:32:50.086Z,2.87
2023-01-03T07:36:52.232Z,2.90
2023-01-03T07:40:57.091Z,2.67
2023-01-03T07:44:59.226Z,3.10
2023-01-03T07:49:05.045Z,2.60
2023-01-03T07:53:10.526Z,1.20
2023-01-03T07:57:12.738Z,2.17
2023-01-03T08:01:22.342Z,2.70
2023-01-03T08:05:24.853Z,3.67
2023-01-03T08:09:27.025Z,1.97
2023-01-03T08:13:29.150Z,4.47
2023-01-03T08:17:31.377Z,1.30
2023-01-03T08:21:36.587Z,2.20
2023-01-03T08:25:39.179Z,1.77
2023-01-03T08:29:41.357Z,1.20
2023-01-03T08:33:46.715Z,3.00
2023-01-03T08:37:49.534Z,1.37
2023-01-03T08:41:55.271Z,2.47
2023-01-03T08:45:57.602Z,1.20
2023-01-03T08:50:00.376Z,3.57
2023-01-03T08:54:02.491Z,3.17
2023-01-03T08:58:04.627Z,1.30
2023-01-03T09:02:07.006Z,1.43
2023-01-03T09:06:09.335Z,2.20
2023-01-03T09:10:11.797Z,1.77
2023-01-03T09:14:13.925Z,4.00
2023-01-03T09:18:16.095Z,2.50
2023-01-03T09:22:18.326Z,3.83
2023-01-03T09:26:20.512Z,2.53
2023-01-03T09:30:22.718Z,2.97
2023-01-03T09:34:24.842Z,3.10
2023-01-03T09:38:26.959Z,2.87
2023-01-03T09:42:29.670Z,1.13
2023-01-03T09:46:32.798Z,1.17
2023-01-03T09:51:05.307Z,3.03
2023-01-03T09:54:59.204Z,1.13
2023-01-03T09:59:02.574Z,1.33
2023-01-03T10:03:23.353Z,2.50
2023-01-03T10:07:41.307Z,1.83
2023-01-03T10:11:43.407Z,2.50
2023-01-03T10:15:53.919Z,0.80
2023-01-03T10:20:09.684Z,1.20
2023-01-03T10:24:17.453Z,1.40
2023-01-03T10:28:23.969Z,3.37
2023-01-03T10:32:34.948Z,1.27
2023-01-03T10:36:37.064Z,2.10
2023-01-03T10:40:51.056Z,3.47
2023-01-03T10:45:22.553Z,3.53
2023-01-03T10:49:30.040Z,2.53
2023-01-03T10:53:37.354Z,2.57
2023-01-03T10:57:42.553Z,1.20
2023-01-03T11:01:58.313Z,2.03
2023-01-03T11:06:00.597Z,2.97
2023-01-03T11:10:02.923Z,1.87
2023-01-03T11:14:08.101Z,2.03
2023-01-03T11:18:20.331Z,4.60
2023-01-03T11:22:35.531Z,1.43
2023-01-03T11:26:48.991Z,5.53
2023-01-03T11:31:07.429Z,2.40
2023-01-03T11:35:28.382Z,6.20
2023-01-03T11:39:39.790Z,2.43
2023-01-03T11:44:00.105Z,4.97
2023-01-03T11:48:17.076Z,1.57
2023-01-03T11:52:22.018Z,1.53
2023-01-03T11:56:39.500Z,2.03
2023-01-03T12:00:46.328Z,1.93
2023-01-03T12:05:00.544Z,2.70
2023-01-03T12:09:07.083Z,2.10
2023-01-03T12:13:09.250Z,2.53
2023-01-03T12:17:14.640Z,2.20
2023-01-03T12:21:22.467Z,6.07
2023-01-03T12:25:24.619Z,1.53
2023-01-03T12:29:39.579Z,3.43
2023-01-03T12:34:01.989Z,1.33
2023-01-03T12:38:05.724Z,3.57
2023-01-03T12:42:17.002Z,1.50
2023-01-03T12:46:22.824Z,1.90
2023-01-03T12:50:31.902Z,2.43
2023-01-03T12:54:52.836Z,2.40
2023-01-03T12:58:54.948Z,3.27
2023-01-03T13:03:07.090Z,2.37
2023-01-03T13:07:25.614Z,2.27
2023-01-03T13:11:31.324Z,3.23
2023-01-03T13:15:37.305Z,2.97
2023-01-03T13:19:40.511Z,2.83
2023-01-03T13:23:42.633Z,3.63
2023-01-03T13:27:51.389Z,3.03
2023-01-03T13:32:03.638Z,3.00
2023-01-03T13:36:05.929Z,5.60
2023-01-03T13:40:18.455Z,1.80
2023-01-03T13:44:21.851Z,1.83
2023-01-03T13:48:31.933Z,2.63
2023-01-03T13:52:56.768Z,3.40
2023-01-03T13:57:00.571Z,7.77
2023-01-03T14:01:06.024Z,4.30
2023-01-03T14:05:11.532Z,3.50
2023-01-03T14:09:13.663Z,3.30
2023-01-03T14:13:34.545Z,3.40
2023-01-03T14:17:37.482Z,4.40
2023-01-03T14:21:42.229Z,2.83
2023-01-03T14:25:45.362Z,3.37
2023-01-03T14:29:52.645Z,8.10
2023-01-03T14:33:59.028Z,2.10
2023-01-03T14:38:06.509Z,3.53
2023-01-03T14:42:16.261Z,2.10
2023-01-03T14:46:18.453Z,2.67
2023-01-03T14:50:25.039Z,2.10
2023-01-03T14:54:27.725Z,4.03
2023-01-03T14:58:32.965Z,2.23
2023-01-03T15:02:37.866Z,3.03
2023-01-03T15:06:40.131Z,3.13
2023-01-03T15:10:44.638Z,4.50
2023-01-03T15:14:46.832Z,1.87
2023-01-03T15:18:48.993Z,7.90
2023-01-03T15:22:51.303Z,19.47
2023-01-03T15:26:54.677Z,14.43
2023-01-03T15:30:58.687Z,5.13
2023-01-03T15:35:00.836Z,18.50
2023-01-03T15:39:03.019Z,9.67
2023-01-03T15:43:05.841Z,15.40
2023-01-03T15:47:08.775Z,3.63
2023-01-03T15:51:10.948Z,3.33
2023-01-03T15:55:13.763Z,3.70
2023-01-03T15:59:21.627Z,4.13
2023-01-03T16:03:25.114Z,4.90
2023-01-03T16:07:27.339Z,3.10
2023-01-03T16:11:34.072Z,8.00
2023-01-03T16:15:36.669Z,7.47
2023-01-03T16:19:38.840Z,4.90
2023-01-03T16:23:40.972Z,3.73
2023-01-03T16:27:43.284Z,5.80
2023-01-03T16:31:45.903Z,5.23
2023-01-03T16:35:48.793Z,4.53
2023-01-03T16:39:50.920Z,6.97
2023-01-03T16:43:53.231Z,4.97
2023-01-03T16:47:55.428Z,5.23
2023-01-03T16:51:58.140Z,6.57
2023-01-03T16:56:01.200Z,5.03
2023-01-03T17:00:03.979Z,4.33
2023-01-03T17:04:06.214Z,6.00
2023-01-03T17:08:28.716Z,7.63
2023-01-03T17:12:30.935Z,6.23
2023-01-03T17:16:33.136Z,7.53
2023-01-03T17:20:35.551Z,7.00
2023-01-03T17:24:37.701Z,8.87
2023-01-03T17:28:39.932Z,6.33
2023-01-03T17:32:42.052Z,7.80
2023-01-03T17:36:44.263Z,8.73
2023-01-03T17:40:47.855Z,9.80
2023-01-03T17:44:51.163Z,8.40
2023-01-03T17:48:53.294Z,7.30
2023-01-03T17:52:56.575Z,9.13
2023-01-03T17:56:59.614Z,10.53
2023-01-03T18:01:01.874Z,9.97
2023-01-03T18:05:26.627Z,9.20
2023-01-03T18:09:26.960Z,7.37
2023-01-03T18:13:31.190Z,7.60
2023-01-03T18:17:34.354Z,12.00
2023-01-03T18:21:36.715Z,10.30
2023-01-03T18:25:38.969Z,7.77
2023-01-03T18:29:41.078Z,15.00
2023-01-03T18:33:43.404Z,8.77
2023-01-03T18:37:46.215Z,10.93
2023-01-03T18:41:48.521Z,13.53
2023-01-03T18:45:51.097Z,13.13
2023-01-03T18:49:53.446Z,21.43
2023-01-03T18:53:59.461Z,12.00
2023-01-03T18:58:08.279Z,9.90
2023-01-03T19:02:14.819Z,8.23
2023-01-03T19:06:19.639Z,10.37
2023-01-03T19:10:26.490Z,9.13
2023-01-03T19:14:28.672Z,10.77
2023-01-03T19:18:30.787Z,9.87
2023-01-03T19:22:33.007Z,9.40
2023-01-03T19:26:37.316Z,8.33
2023-01-03T19:30:40.569Z,10.03
2023-01-03T19:34:42.719Z,8.83
2023-01-03T19:38:44.864Z,8.63
2023-01-03T19:42:54.792Z,10.13
2023-01-03T19:46:56.959Z,7.97
2023-01-03T19:50:59.160Z,8.80
2023-01-03T19:55:01.341Z,9.93
2023-01-03T19:59:03.872Z,10.87
2023-01-03T20:03:07.859Z,10.00
2023-01-03T20:07:16.227Z,11.40
2023-01-03T20:11:20.259Z,9.47
2023-01-03T20:15:26.446Z,9.43
2023-01-03T20:19:28.570Z,10.93
2023-01-03T20:23:33.608Z,12.50
2023-01-03T20:27:40.854Z,13.23
2023-01-03T20:31:46.475Z,10.17
2023-01-03T20:40:14.707Z,11.20
2023-01-03T20:44:16.836Z,9.53
2023-01-03T20:48:25.014Z,10.67
2023-01-03T20:52:28.225Z,10.70
2023-01-03T20:56:30.551Z,10.00
2023-01-03T21:00:34.630Z,11.43
2023-01-03T21:04:37.125Z,27.60
2023-01-03T21:08:39.299Z,9.57
2023-01-03T21:12:41.447Z,13.27
2023-01-03T21:16:44.968Z,12.17
2023-01-03T21:20:47.164Z,9.93
2023-01-03T21:24:53.943Z,8.57
2023-01-03T21:29:00.261Z,10.17
2023-01-03T21:33:02.433Z,9.57
2023-01-03T21:37:04.688Z,9.60
2023-01-03T21:41:06.872Z,8.47
2023-01-03T21:45:13.088Z,7.50
2023-01-03T21:49:15.239Z,7.70
2023-01-03T21:53:18.786Z,9.67
2023-01-03T21:57:23.302Z,9.37
2023-01-03T22:01:25.899Z,8.87
2023-01-03T22:05:29.096Z,10.10
2023-01-03T22:09:32.145Z,16.00
2023-01-03T22:13:34.352Z,12.47
2023-01-03T22:17:36.827Z,9.60
2023-01-03T22:21:39.016Z,6.57
2023-01-03T22:25:41.151Z,10.47
2023-01-03T22:29:43.319Z,9.60
2023-01-03T22:33:46.358Z,9.40
2023-01-03T22:37:48.519Z,8.77
2023-01-03T22:41:50.613Z,7.37
2023-01-03T22:45:52.848Z,9.57
2023-01-03T22:49:55.112Z,7.47
2023-01-03T22:53:57.987Z,8.10
2023-01-03T22:58:00.157Z,6.93
2023-01-03T23:02:02.606Z,5.77
2023-01-03T23:06:08.646Z,5.73
2023-01-03T23:10:11.414Z,5.53
2023-01-03T23:14:14.944Z,6.30
2023-01-03T23:18:17.104Z,6.47
2023-01-03T23:22:19.313Z,5.60
2023-01-03T23:26:21.502Z,5.60
2023-01-03T23:30:23.729Z,4.07
2023-01-03T23:34:25.921Z,7.67
2023-01-03T23:38:28.605Z,6.90
2023-01-03T23:42:30.779Z,6.37
2023-01-03T23:46:33.141Z,6.07
2023-01-03T23:50:35.317Z,6.23
2023-01-03T23:54:37.447Z,5.40
2023-01-03T23:58:39.805Z,5.53
